sensor_id;sensor_type;location;lat;lon;timestamp;P1;durP1;ratioP1;P2;durP2;ratioP2
5428;SDS011;2737;52.386;9.980;2023-04-21T00:01:41;20.60;;;12.27;;
5428;SDS011;2737;52.386;9.980;2023-04-21T00:04:08;27.73;;;13.57;;
5428;SDS011;2737;52.386;9.980;2023-04-21T00:06:37;24.50;;;12.37;;
5428;SDS011;2737;52.386;9.980;2023-04-21T00:09:05;20.93;;;12.00;;
5428;SDS011;2737;52.386;9.980;2023-04-21T00:11:32;22.13;;;11.40;;
5428;SDS011;2737;52.386;9.980;2023-04-21T00:13:59;20.63;;;12.20;;
5428;SDS011;2737;52.386;9.980;2023-04-21T00:16:28;21.80;;;12.40;;
5428;SDS011;2737;52.386;9.980;2023-04-21T00:18:55;26.93;;;11.87;;
5428;SDS011;2737;52.386;9.980;2023-04-21T00:21:22;19.27;;;12.20;;
5428;SDS011;2737;52.386;9.980;2023-04-21T00:23:49;23.60;;;11.37;;
5428;SDS011;2737;52.386;9.980;2023-04-21T00:26:16;18.63;;;11.50;;
5428;SDS011;2737;52.386;9.980;2023-04-21T00:28:44;21.73;;;12.10;;
5428;SDS011;2737;52.386;9.980;2023-04-21T00:31:11;21.00;;;11.00;;
5428;SDS011;2737;52.386;9.980;2023-04-21T00:33:39;22.13;;;12.03;;
5428;SDS011;2737;52.386;9.980;2023-04-21T00:36:06;20.33;;;11.00;;
5428;SDS011;2737;52.386;9.980;2023-04-21T00:38:33;20.50;;;11.67;;
5428;SDS011;2737;52.386;9.980;2023-04-21T00:41:00;19.77;;;10.73;;
5428;SDS011;2737;52.386;9.980;2023-04-21T00:43:28;24.00;;;11.50;;
5428;SDS011;2737;52.386;9.980;2023-04-21T00:45:55;19.90;;;10.87;;
5428;SDS011;2737;52.386;9.980;2023-04-21T00:48:22;18.23;;;10.70;;
5428;SDS011;2737;52.386;9.980;2023-04-21T00:50:50;17.57;;;10.90;;
5428;SDS011;2737;52.386;9.980;2023-04-21T00:53:17;17.77;;;10.47;;
5428;SDS011;2737;52.386;9.980;2023-04-21T00:55:46;15.33;;;9.80;;
5428;SDS011;2737;52.386;9.980;2023-04-21T00:58:13;18.63;;;11.23;;
5428;SDS011;2737;52.386;9.980;2023-04-21T01:00:40;21.00;;;10.80;;
5428;SDS011;2737;52.386;9.980;2023-04-21T01:03:08;20.50;;;10.23;;
5428;SDS011;2737;52.386;9.980;2023-04-21T01:05:35;17.80;;;9.40;;
5428;SDS011;2737;52.386;9.980;2023-04-21T01:08:04;27.23;;;10.10;;
5428;SDS011;2737;52.386;9.980;2023-04-21T01:10:32;15.90;;;9.50;;
5428;SDS011;2737;52.386;9.980;2023-04-21T01:12:59;23.87;;;11.63;;
5428;SDS011;2737;52.386;9.980;2023-04-21T01:15:27;17.37;;;10.07;;
5428;SDS011;2737;52.386;9.980;2023-04-21T01:17:55;17.80;;;9.80;;
5428;SDS011;2737;52.386;9.980;2023-04-21T01:20:22;24.97;;;10.23;;
5428;SDS011;2737;52.386;9.980;2023-04-21T01:22:51;20.43;;;9.23;;
5428;SDS011;2737;52.386;9.980;2023-04-21T01:25:18;19.77;;;9.50;;
5428;SDS011;2737;52.386;9.980;2023-04-21T01:27:46;14.80;;;9.10;;
5428;SDS011;2737;52.386;9.980;2023-04-21T01:30:13;16.27;;;9.97;;
5428;SDS011;2737;52.386;9.980;2023-04-21T01:32:40;16.43;;;9.33;;
5428;SDS011;2737;52.386;9.980;2023-04-21T01:35:08;16.60;;;11.10;;
5428;SDS011;2737;52.386;9.980;2023-04-21T01:37:35;16.30;;;9.00;;
5428;SDS011;2737;52.386;9.980;2023-04-21T01:40:04;20.13;;;10.40;;
5428;SDS011;2737;52.386;9.980;2023-04-21T01:42:34;18.77;;;9.00;;
5428;SDS011;2737;52.386;9.980;2023-04-21T01:45:02;14.67;;;9.33;;
5428;SDS011;2737;52.386;9.980;2023-04-21T01:47:30;27.03;;;9.50;;
5428;SDS011;2737;52.386;9.980;2023-04-21T01:49:57;15.83;;;8.50;;
5428;SDS011;2737;52.386;9.980;2023-04-21T01:52:24;16.37;;;8.70;;
5428;SDS011;2737;52.386;9.980;2023-04-21T01:54:51;13.30;;;8.67;;
5428;SDS011;2737;52.386;9.980;2023-04-21T01:57:19;17.97;;;8.47;;
5428;SDS011;2737;52.386;9.980;2023-04-21T01:59:46;23.03;;;8.37;;
5428;SDS011;2737;52.386;9.980;2023-04-21T02:02:14;16.40;;;7.97;;
5428;SDS011;2737;52.386;9.980;2023-04-21T02:04:41;16.27;;;8.57;;
5428;SDS011;2737;52.386;9.980;2023-04-21T02:07:08;16.63;;;8.53;;
5428;SDS011;2737;52.386;9.980;2023-04-21T02:09:35;14.43;;;8.50;;
5428;SDS011;2737;52.386;9.980;2023-04-21T02:12:02;21.63;;;8.10;;
5428;SDS011;2737;52.386;9.980;2023-04-21T02:14:30;17.80;;;8.80;;
5428;SDS011;2737;52.386;9.980;2023-04-21T02:16:57;18.90;;;8.93;;
5428;SDS011;2737;52.386;9.980;2023-04-21T02:19:27;13.37;;;7.70;;
5428;SDS011;2737;52.386;9.980;2023-04-21T02:21:54;14.10;;;8.10;;
5428;SDS011;2737;52.386;9.980;2023-04-21T02:24:21;13.40;;;7.90;;
5428;SDS011;2737;52.386;9.980;2023-04-21T02:26:48;13.47;;;8.07;;
5428;SDS011;2737;52.386;9.980;2023-04-21T02:29:15;13.37;;;8.17;;
5428;SDS011;2737;52.386;9.980;2023-04-21T02:31:44;18.40;;;7.73;;
5428;SDS011;2737;52.386;9.980;2023-04-21T02:34:11;16.87;;;7.90;;
5428;SDS011;2737;52.386;9.980;2023-04-21T02:36:38;14.80;;;8.03;;
5428;SDS011;2737;52.386;9.980;2023-04-21T02:39:05;11.67;;;7.20;;
5428;SDS011;2737;52.386;9.980;2023-04-21T02:41:32;15.30;;;8.17;;
5428;SDS011;2737;52.386;9.980;2023-04-21T02:43:59;20.13;;;7.77;;
5428;SDS011;2737;52.386;9.980;2023-04-21T02:46:26;12.13;;;7.50;;
5428;SDS011;2737;52.386;9.980;2023-04-21T02:48:54;14.07;;;7.67;;
5428;SDS011;2737;52.386;9.980;2023-04-21T02:51:21;13.87;;;7.70;;
5428;SDS011;2737;52.386;9.980;2023-04-21T02:53:48;10.77;;;6.90;;
5428;SDS011;2737;52.386;9.980;2023-04-21T02:56:15;15.93;;;7.83;;
5428;SDS011;2737;52.386;9.980;2023-04-21T02:58:42;19.13;;;7.87;;
5428;SDS011;2737;52.386;9.980;2023-04-21T03:01:09;14.87;;;7.60;;
5428;SDS011;2737;52.386;9.980;2023-04-21T03:03:36;18.60;;;7.23;;
5428;SDS011;2737;52.386;9.980;2023-04-21T03:06:05;15.40;;;7.47;;
5428;SDS011;2737;52.386;9.980;2023-04-21T03:08:32;12.27;;;7.30;;
5428;SDS011;2737;52.386;9.980;2023-04-21T03:10:59;16.80;;;7.67;;
5428;SDS011;2737;52.386;9.980;2023-04-21T03:13:26;14.87;;;7.47;;
5428;SDS011;2737;52.386;9.980;2023-04-21T03:15:53;13.17;;;7.10;;
5428;SDS011;2737;52.386;9.980;2023-04-21T03:18:21;17.33;;;8.50;;
5428;SDS011;2737;52.386;9.980;2023-04-21T03:20:48;16.23;;;8.50;;
5428;SDS011;2737;52.386;9.980;2023-04-21T03:23:16;19.47;;;7.53;;
5428;SDS011;2737;52.386;9.980;2023-04-21T03:25:43;11.80;;;7.67;;
5428;SDS011;2737;52.386;9.980;2023-04-21T03:28:10;18.10;;;7.47;;
5428;SDS011;2737;52.386;9.980;2023-04-21T03:30:37;15.13;;;7.90;;
5428;SDS011;2737;52.386;9.980;2023-04-21T03:33:04;16.70;;;7.70;;
5428;SDS011;2737;52.386;9.980;2023-04-21T03:35:31;18.20;;;7.40;;
5428;SDS011;2737;52.386;9.980;2023-04-21T03:37:59;15.87;;;7.13;;
5428;SDS011;2737;52.386;9.980;2023-04-21T03:40:27;12.23;;;7.70;;
5428;SDS011;2737;52.386;9.980;2023-04-21T03:42:54;11.47;;;7.47;;
5428;SDS011;2737;52.386;9.980;2023-04-21T03:45:21;12.47;;;7.20;;
5428;SDS011;2737;52.386;9.980;2023-04-21T03:47:51;19.13;;;8.17;;
5428;SDS011;2737;52.386;9.980;2023-04-21T03:50:20;11.33;;;7.10;;
5428;SDS011;2737;52.386;9.980;2023-04-21T03:52:47;18.67;;;7.40;;
5428;SDS011;2737;52.386;9.980;2023-04-21T03:55:14;18.03;;;7.57;;
5428;SDS011;2737;52.386;9.980;2023-04-21T03:57:42;13.80;;;7.30;;
5428;SDS011;2737;52.386;9.980;2023-04-21T04:00:10;14.20;;;6.50;;
5428;SDS011;2737;52.386;9.980;2023-04-21T04:02:37;11.80;;;6.53;;
5428;SDS011;2737;52.386;9.980;2023-04-21T04:05:05;10.63;;;7.03;;
5428;SDS011;2737;52.386;9.980;2023-04-21T04:07:32;10.70;;;7.57;;
5428;SDS011;2737;52.386;9.980;2023-04-21T04:10:00;18.80;;;8.60;;
5428;SDS011;2737;52.386;9.980;2023-04-21T04:12:27;15.20;;;7.20;;
5428;SDS011;2737;52.386;9.980;2023-04-21T04:14:55;13.10;;;7.23;;
5428;SDS011;2737;52.386;9.980;2023-04-21T04:17:22;20.43;;;8.10;;
5428;SDS011;2737;52.386;9.980;2023-04-21T04:19:49;15.60;;;8.10;;
5428;SDS011;2737;52.386;9.980;2023-04-21T04:22:16;14.87;;;8.40;;
5428;SDS011;2737;52.386;9.980;2023-04-21T04:24:43;22.13;;;9.97;;
5428;SDS011;2737;52.386;9.980;2023-04-21T04:27:12;21.43;;;8.43;;
5428;SDS011;2737;52.386;9.980;2023-04-21T04:29:39;18.27;;;8.00;;
5428;SDS011;2737;52.386;9.980;2023-04-21T04:32:08;16.93;;;8.20;;
5428;SDS011;2737;52.386;9.980;2023-04-21T04:34:35;16.30;;;7.30;;
5428;SDS011;2737;52.386;9.980;2023-04-21T04:37:03;19.83;;;7.40;;
5428;SDS011;2737;52.386;9.980;2023-04-21T04:39:30;19.00;;;8.97;;
5428;SDS011;2737;52.386;9.980;2023-04-21T04:41:58;15.70;;;8.20;;
5428;SDS011;2737;52.386;9.980;2023-04-21T04:44:25;15.60;;;7.43;;
5428;SDS011;2737;52.386;9.980;2023-04-21T04:46:52;15.93;;;7.40;;
5428;SDS011;2737;52.386;9.980;2023-04-21T04:49:21;13.33;;;8.07;;
5428;SDS011;2737;52.386;9.980;2023-04-21T04:51:48;14.57;;;7.93;;
5428;SDS011;2737;52.386;9.980;2023-04-21T04:54:14;12.77;;;8.13;;
5428;SDS011;2737;52.386;9.980;2023-04-21T04:56:41;13.90;;;8.50;;
5428;SDS011;2737;52.386;9.980;2023-04-21T04:59:08;15.00;;;8.40;;
5428;SDS011;2737;52.386;9.980;2023-04-21T05:01:35;15.37;;;8.60;;
5428;SDS011;2737;52.386;9.980;2023-04-21T05:04:04;19.83;;;7.63;;
5428;SDS011;2737;52.386;9.980;2023-04-21T05:06:32;18.57;;;8.90;;
5428;SDS011;2737;52.386;9.980;2023-04-21T05:08:59;16.00;;;8.40;;
5428;SDS011;2737;52.386;9.980;2023-04-21T05:11:26;15.43;;;8.00;;
5428;SDS011;2737;52.386;9.980;2023-04-21T05:13:53;12.60;;;7.83;;
5428;SDS011;2737;52.386;9.980;2023-04-21T05:16:20;15.73;;;7.40;;
5428;SDS011;2737;52.386;9.980;2023-04-21T05:18:47;29.67;;;9.57;;
5428;SDS011;2737;52.386;9.980;2023-04-21T05:21:21;12.90;;;8.30;;
5428;SDS011;2737;52.386;9.980;2023-04-21T05:23:52;12.20;;;8.50;;
5428;SDS011;2737;52.386;9.980;2023-04-21T05:26:20;17.50;;;7.70;;
5428;SDS011;2737;52.386;9.980;2023-04-21T05:28:47;20.73;;;7.53;;
5428;SDS011;2737;52.386;9.980;2023-04-21T05:31:14;15.40;;;7.70;;
5428;SDS011;2737;52.386;9.980;2023-04-21T05:33:41;18.73;;;7.93;;
5428;SDS011;2737;52.386;9.980;2023-04-21T05:36:08;19.33;;;7.40;;
5428;SDS011;2737;52.386;9.980;2023-04-21T05:38:36;16.00;;;6.70;;
5428;SDS011;2737;52.386;9.980;2023-04-21T05:41:05;16.53;;;7.17;;
5428;SDS011;2737;52.386;9.980;2023-04-21T05:43:32;13.10;;;7.10;;
5428;SDS011;2737;52.386;9.980;2023-04-21T05:45:59;21.30;;;8.10;;
5428;SDS011;2737;52.386;9.980;2023-04-21T05:48:26;14.50;;;7.70;;
5428;SDS011;2737;52.386;9.980;2023-04-21T05:50:54;17.00;;;7.23;;
5428;SDS011;2737;52.386;9.980;2023-04-21T05:53:21;15.50;;;7.63;;
5428;SDS011;2737;52.386;9.980;2023-04-21T05:55:48;10.97;;;6.93;;
5428;SDS011;2737;52.386;9.980;2023-04-21T05:58:17;15.87;;;7.40;;
5428;SDS011;2737;52.386;9.980;2023-04-21T06:00:44;13.77;;;7.43;;
5428;SDS011;2737;52.386;9.980;2023-04-21T06:03:11;12.17;;;6.40;;
5428;SDS011;2737;52.386;9.980;2023-04-21T06:05:38;11.20;;;6.93;;
5428;SDS011;2737;52.386;9.980;2023-04-21T06:08:05;12.87;;;7.17;;
5428;SDS011;2737;52.386;9.980;2023-04-21T06:10:33;15.03;;;7.00;;
5428;SDS011;2737;52.386;9.980;2023-04-21T06:13:00;16.43;;;7.70;;
5428;SDS011;2737;52.386;9.980;2023-04-21T06:15:28;10.33;;;6.17;;
5428;SDS011;2737;52.386;9.980;2023-04-21T06:17:55;15.20;;;6.97;;
5428;SDS011;2737;52.386;9.980;2023-04-21T06:20:22;17.00;;;6.20;;
5428;SDS011;2737;52.386;9.980;2023-04-21T06:22:49;15.07;;;7.20;;
5428;SDS011;2737;52.386;9.980;2023-04-21T06:25:16;13.47;;;6.40;;
5428;SDS011;2737;52.386;9.980;2023-04-21T06:27:43;12.27;;;6.20;;
5428;SDS011;2737;52.386;9.980;2023-04-21T06:30:10;13.87;;;6.67;;
5428;SDS011;2737;52.386;9.980;2023-04-21T06:32:39;15.40;;;6.47;;
5428;SDS011;2737;52.386;9.980;2023-04-21T06:35:06;16.10;;;6.50;;
5428;SDS011;2737;52.386;9.980;2023-04-21T06:37:34;19.23;;;7.03;;
5428;SDS011;2737;52.386;9.980;2023-04-21T06:40:01;17.03;;;7.50;;
5428;SDS011;2737;52.386;9.980;2023-04-21T06:42:28;10.67;;;6.33;;
5428;SDS011;2737;52.386;9.980;2023-04-21T06:44:55;13.90;;;6.37;;
5428;SDS011;2737;52.386;9.980;2023-04-21T06:47:22;15.30;;;6.10;;
5428;SDS011;2737;52.386;9.980;2023-04-21T06:49:51;10.87;;;6.30;;
5428;SDS011;2737;52.386;9.980;2023-04-21T06:52:18;13.10;;;7.17;;
5428;SDS011;2737;52.386;9.980;2023-04-21T06:54:45;12.20;;;6.00;;
5428;SDS011;2737;52.386;9.980;2023-04-21T06:57:12;23.10;;;7.90;;
5428;SDS011;2737;52.386;9.980;2023-04-21T06:59:39;23.77;;;7.20;;
5428;SDS011;2737;52.386;9.980;2023-04-21T07:02:06;14.70;;;6.90;;
5428;SDS011;2737;52.386;9.980;2023-04-21T07:04:33;14.47;;;7.30;;
5428;SDS011;2737;52.386;9.980;2023-04-21T07:07:02;15.20;;;7.00;;
5428;SDS011;2737;52.386;9.980;2023-04-21T07:09:29;10.00;;;6.70;;
5428;SDS011;2737;52.386;9.980;2023-04-21T07:11:57;17.53;;;7.13;;
5428;SDS011;2737;52.386;9.980;2023-04-21T07:14:25;15.73;;;6.60;;
5428;SDS011;2737;52.386;9.980;2023-04-21T07:16:52;12.87;;;6.83;;
5428;SDS011;2737;52.386;9.980;2023-04-21T07:19:21;12.63;;;7.30;;
5428;SDS011;2737;52.386;9.980;2023-04-21T07:21:48;14.20;;;6.80;;
5428;SDS011;2737;52.386;9.980;2023-04-21T07:24:16;25.13;;;7.80;;
5428;SDS011;2737;52.386;9.980;2023-04-21T07:26:43;12.23;;;7.00;;
5428;SDS011;2737;52.386;9.980;2023-04-21T07:29:10;18.30;;;8.10;;
5428;SDS011;2737;52.386;9.980;2023-04-21T07:31:37;18.83;;;7.07;;
5428;SDS011;2737;52.386;9.980;2023-04-21T07:34:04;14.90;;;6.53;;
5428;SDS011;2737;52.386;9.980;2023-04-21T07:36:31;21.87;;;7.37;;
5428;SDS011;2737;52.386;9.980;2023-04-21T07:38:58;17.60;;;8.47;;
5428;SDS011;2737;52.386;9.980;2023-04-21T07:41:27;12.30;;;7.00;;
5428;SDS011;2737;52.386;9.980;2023-04-21T07:43:54;12.40;;;6.80;;
5428;SDS011;2737;52.386;9.980;2023-04-21T07:46:21;17.13;;;6.53;;
5428;SDS011;2737;52.386;9.980;2023-04-21T07:48:54;17.40;;;6.80;;
5428;SDS011;2737;52.386;9.980;2023-04-21T07:51:21;12.23;;;6.33;;
5428;SDS011;2737;52.386;9.980;2023-04-21T07:53:48;16.50;;;7.00;;
5428;SDS011;2737;52.386;9.980;2023-04-21T07:56:15;15.63;;;6.60;;
5428;SDS011;2737;52.386;9.980;2023-04-21T07:58:44;11.37;;;7.10;;
5428;SDS011;2737;52.386;9.980;2023-04-21T08:01:11;15.30;;;7.27;;
5428;SDS011;2737;52.386;9.980;2023-04-21T08:03:38;11.43;;;6.53;;
5428;SDS011;2737;52.386;9.980;2023-04-21T08:06:05;16.60;;;7.93;;
5428;SDS011;2737;52.386;9.980;2023-04-21T08:08:32;10.53;;;6.20;;
5428;SDS011;2737;52.386;9.980;2023-04-21T08:10:59;17.60;;;7.17;;
5428;SDS011;2737;52.386;9.980;2023-04-21T08:13:26;13.13;;;6.50;;
5428;SDS011;2737;52.386;9.980;2023-04-21T08:15:55;16.33;;;7.10;;
5428;SDS011;2737;52.386;9.980;2023-04-21T08:18:22;14.90;;;6.20;;
5428;SDS011;2737;52.386;9.980;2023-04-21T08:20:49;19.57;;;7.03;;
5428;SDS011;2737;52.386;9.980;2023-04-21T08:23:16;12.97;;;7.20;;
5428;SDS011;2737;52.386;9.980;2023-04-21T08:25:43;15.67;;;6.57;;
5428;SDS011;2737;52.386;9.980;2023-04-21T08:28:11;18.50;;;7.10;;
5428;SDS011;2737;52.386;9.980;2023-04-21T08:30:38;12.97;;;7.00;;
5428;SDS011;2737;52.386;9.980;2023-04-21T08:33:06;17.47;;;6.97;;
5428;SDS011;2737;52.386;9.980;2023-04-21T08:35:37;30.57;;;7.87;;
5428;SDS011;2737;52.386;9.980;2023-04-21T08:38:05;10.90;;;6.77;;
5428;SDS011;2737;52.386;9.980;2023-04-21T08:40:33;13.97;;;6.77;;
5428;SDS011;2737;52.386;9.980;2023-04-21T08:43:03;18.30;;;5.90;;
5428;SDS011;2737;52.386;9.980;2023-04-21T08:45:31;19.77;;;7.20;;
5428;SDS011;2737;52.386;9.980;2023-04-21T08:47:58;13.00;;;5.97;;
5428;SDS011;2737;52.386;9.980;2023-04-21T08:50:28;14.27;;;6.70;;
5428;SDS011;2737;52.386;9.980;2023-04-21T08:52:56;22.90;;;7.07;;
5428;SDS011;2737;52.386;9.980;2023-04-21T08:55:24;12.40;;;6.90;;
5428;SDS011;2737;52.386;9.980;2023-04-21T08:57:55;14.37;;;6.40;;
5428;SDS011;2737;52.386;9.980;2023-04-21T09:00:23;13.63;;;6.70;;
5428;SDS011;2737;52.386;9.980;2023-04-21T09:02:53;16.00;;;6.00;;
5428;SDS011;2737;52.386;9.980;2023-04-21T09:05:21;15.27;;;5.70;;
5428;SDS011;2737;52.386;9.980;2023-04-21T09:07:52;12.57;;;6.27;;
5428;SDS011;2737;52.386;9.980;2023-04-21T09:10:23;16.23;;;6.40;;
5428;SDS011;2737;52.386;9.980;2023-04-21T09:12:51;13.10;;;5.50;;
5428;SDS011;2737;52.386;9.980;2023-04-21T09:15:20;11.90;;;5.70;;
5428;SDS011;2737;52.386;9.980;2023-04-21T09:17:49;16.03;;;6.63;;
5428;SDS011;2737;52.386;9.980;2023-04-21T09:20:21;16.23;;;6.23;;
5428;SDS011;2737;52.386;9.980;2023-04-21T09:22:49;15.50;;;5.77;;
5428;SDS011;2737;52.386;9.980;2023-04-21T09:25:19;12.87;;;5.23;;
5428;SDS011;2737;52.386;9.980;2023-04-21T09:27:46;15.13;;;5.73;;
5428;SDS011;2737;52.386;9.980;2023-04-21T09:30:17;6.43;;;4.90;;
5428;SDS011;2737;52.386;9.980;2023-04-21T09:32:45;10.00;;;4.27;;
5428;SDS011;2737;52.386;9.980;2023-04-21T09:35:12;11.57;;;4.37;;
5428;SDS011;2737;52.386;9.980;2023-04-21T09:37:39;13.07;;;4.83;;
5428;SDS011;2737;52.386;9.980;2023-04-21T09:40:12;11.20;;;4.30;;
5428;SDS011;2737;52.386;9.980;2023-04-21T09:42:41;12.67;;;4.57;;
5428;SDS011;2737;52.386;9.980;2023-04-21T09:45:08;11.00;;;5.07;;
5428;SDS011;2737;52.386;9.980;2023-04-21T09:47:37;17.17;;;5.63;;
5428;SDS011;2737;52.386;9.980;2023-04-21T09:50:06;9.03;;;4.13;;
5428;SDS011;2737;52.386;9.980;2023-04-21T09:52:34;15.33;;;4.70;;
5428;SDS011;2737;52.386;9.980;2023-04-21T09:57:36;17.07;;;4.77;;
5428;SDS011;2737;52.386;9.980;2023-04-21T10:00:07;18.47;;;4.27;;
5428;SDS011;2737;52.386;9.980;2023-04-21T10:02:37;10.40;;;4.20;;
5428;SDS011;2737;52.386;9.980;2023-04-21T10:05:08;12.53;;;4.63;;
5428;SDS011;2737;52.386;9.980;2023-04-21T10:07:36;7.70;;;4.00;;
5428;SDS011;2737;52.386;9.980;2023-04-21T10:10:03;11.80;;;4.67;;
5428;SDS011;2737;52.386;9.980;2023-04-21T10:12:34;19.17;;;5.70;;
5428;SDS011;2737;52.386;9.980;2023-04-21T10:15:02;7.73;;;3.97;;
5428;SDS011;2737;52.386;9.980;2023-04-21T10:17:33;4.70;;;3.80;;
5428;SDS011;2737;52.386;9.980;2023-04-21T10:20:03;36.20;;;5.33;;
5428;SDS011;2737;52.386;9.980;2023-04-21T10:22:34;18.40;;;4.23;;
5428;SDS011;2737;52.386;9.980;2023-04-21T10:25:03;20.80;;;4.40;;
5428;SDS011;2737;52.386;9.980;2023-04-21T10:27:34;8.47;;;3.73;;
5428;SDS011;2737;52.386;9.980;2023-04-21T10:30:16;6.03;;;4.30;;
5428;SDS011;2737;52.386;9.980;2023-04-21T10:32:46;12.07;;;4.40;;
5428;SDS011;2737;52.386;9.980;2023-04-21T10:35:14;10.63;;;3.90;;
5428;SDS011;2737;52.386;9.980;2023-04-21T10:37:47;9.20;;;4.20;;
5428;SDS011;2737;52.386;9.980;2023-04-21T10:40:34;14.17;;;4.23;;
5428;SDS011;2737;52.386;9.980;2023-04-21T10:43:01;10.50;;;4.47;;
5428;SDS011;2737;52.386;9.980;2023-04-21T10:45:29;14.00;;;3.57;;
5428;SDS011;2737;52.386;9.980;2023-04-21T10:47:59;9.37;;;4.07;;
5428;SDS011;2737;52.386;9.980;2023-04-21T10:50:28;12.37;;;4.00;;
5428;SDS011;2737;52.386;9.980;2023-04-21T10:52:57;10.00;;;4.10;;
5428;SDS011;2737;52.386;9.980;2023-04-21T10:55:32;9.73;;;4.60;;
5428;SDS011;2737;52.386;9.980;2023-04-21T10:58:00;14.93;;;4.73;;
5428;SDS011;2737;52.386;9.980;2023-04-21T11:00:29;14.30;;;4.77;;
5428;SDS011;2737;52.386;9.980;2023-04-21T11:02:56;8.17;;;4.30;;
5428;SDS011;2737;52.386;9.980;2023-04-21T11:05:27;6.13;;;4.10;;
5428;SDS011;2737;52.386;9.980;2023-04-21T11:08:05;9.10;;;4.20;;
5428;SDS011;2737;52.386;9.980;2023-04-21T11:10:44;7.23;;;4.50;;
5428;SDS011;2737;52.386;9.980;2023-04-21T11:13:13;7.90;;;4.10;;
5428;SDS011;2737;52.386;9.980;2023-04-21T11:15:40;11.87;;;4.67;;
5428;SDS011;2737;52.386;9.980;2023-04-21T11:18:08;10.10;;;4.20;;
5428;SDS011;2737;52.386;9.980;2023-04-21T11:20:38;6.57;;;4.30;;
5428;SDS011;2737;52.386;9.980;2023-04-21T11:23:15;10.57;;;4.47;;
5428;SDS011;2737;52.386;9.980;2023-04-21T11:25:44;11.27;;;5.00;;
5428;SDS011;2737;52.386;9.980;2023-04-21T11:28:11;8.63;;;3.90;;
5428;SDS011;2737;52.386;9.980;2023-04-21T11:30:46;10.70;;;4.40;;
5428;SDS011;2737;52.386;9.980;2023-04-21T11:33:15;11.23;;;4.20;;
5428;SDS011;2737;52.386;9.980;2023-04-21T11:35:42;19.03;;;4.53;;
5428;SDS011;2737;52.386;9.980;2023-04-21T11:38:09;10.77;;;4.43;;
5428;SDS011;2737;52.386;9.980;2023-04-21T11:40:45;12.03;;;4.73;;
5428;SDS011;2737;52.386;9.980;2023-04-21T11:43:13;9.90;;;4.60;;
5428;SDS011;2737;52.386;9.980;2023-04-21T11:45:40;11.60;;;5.20;;
5428;SDS011;2737;52.386;9.980;2023-04-21T11:48:13;8.50;;;4.60;;
5428;SDS011;2737;52.386;9.980;2023-04-21T11:50:45;7.97;;;4.50;;
5428;SDS011;2737;52.386;9.980;2023-04-21T11:53:13;6.80;;;3.73;;
5428;SDS011;2737;52.386;9.980;2023-04-21T11:55:41;14.03;;;4.40;;
5428;SDS011;2737;52.386;9.980;2023-04-21T11:58:09;9.97;;;4.50;;
5428;SDS011;2737;52.386;9.980;2023-04-21T12:00:40;6.40;;;4.30;;
5428;SDS011;2737;52.386;9.980;2023-04-21T12:03:09;7.00;;;4.50;;
5428;SDS011;2737;52.386;9.980;2023-04-21T12:05:40;12.80;;;5.13;;
5428;SDS011;2737;52.386;9.980;2023-04-21T12:08:11;5.30;;;4.30;;
5428;SDS011;2737;52.386;9.980;2023-04-21T12:10:43;8.80;;;4.67;;
5428;SDS011;2737;52.386;9.980;2023-04-21T12:13:10;11.10;;;4.80;;
5428;SDS011;2737;52.386;9.980;2023-04-21T12:15:37;9.53;;;4.20;;
5428;SDS011;2737;52.386;9.980;2023-04-21T12:18:04;7.27;;;4.93;;
5428;SDS011;2737;52.386;9.980;2023-04-21T12:20:39;6.40;;;4.60;;
5428;SDS011;2737;52.386;9.980;2023-04-21T12:23:14;11.67;;;5.27;;
5428;SDS011;2737;52.386;9.980;2023-04-21T12:25:41;16.27;;;5.20;;
5428;SDS011;2737;52.386;9.980;2023-04-21T12:28:09;9.77;;;4.50;;
5428;SDS011;2737;52.386;9.980;2023-04-21T12:30:36;10.63;;;4.80;;
5428;SDS011;2737;52.386;9.980;2023-04-21T12:33:03;9.60;;;5.43;;
5428;SDS011;2737;52.386;9.980;2023-04-21T12:35:31;14.33;;;4.80;;
5428;SDS011;2737;52.386;9.980;2023-04-21T12:37:59;9.70;;;4.53;;
5428;SDS011;2737;52.386;9.980;2023-04-21T12:40:26;10.07;;;4.37;;
5428;SDS011;2737;52.386;9.980;2023-04-21T12:42:53;9.33;;;4.33;;
5428;SDS011;2737;52.386;9.980;2023-04-21T12:45:20;7.70;;;4.63;;
5428;SDS011;2737;52.386;9.980;2023-04-21T12:47:47;11.73;;;4.23;;
5428;SDS011;2737;52.386;9.980;2023-04-21T12:50:14;19.47;;;4.70;;
5428;SDS011;2737;52.386;9.980;2023-04-21T12:52:41;8.10;;;4.57;;
5428;SDS011;2737;52.386;9.980;2023-04-21T12:55:10;8.47;;;4.00;;
5428;SDS011;2737;52.386;9.980;2023-04-21T12:57:37;6.90;;;4.47;;
5428;SDS011;2737;52.386;9.980;2023-04-21T13:00:05;6.13;;;4.33;;
5428;SDS011;2737;52.386;9.980;2023-04-21T13:02:36;10.80;;;4.63;;
5428;SDS011;2737;52.386;9.980;2023-04-21T13:05:03;12.83;;;4.70;;
5428;SDS011;2737;52.386;9.980;2023-04-21T13:07:32;13.50;;;4.93;;
5428;SDS011;2737;52.386;9.980;2023-04-21T13:09:59;11.07;;;4.47;;
5428;SDS011;2737;52.386;9.980;2023-04-21T13:12:28;11.37;;;4.10;;
5428;SDS011;2737;52.386;9.980;2023-04-21T13:14:55;10.40;;;4.70;;
5428;SDS011;2737;52.386;9.980;2023-04-21T13:17:22;7.60;;;3.90;;
5428;SDS011;2737;52.386;9.980;2023-04-21T13:19:49;6.03;;;3.60;;
5428;SDS011;2737;52.386;9.980;2023-04-21T13:22:16;10.30;;;4.40;;
5428;SDS011;2737;52.386;9.980;2023-04-21T13:24:43;6.43;;;3.80;;
5428;SDS011;2737;52.386;9.980;2023-04-21T13:27:10;10.57;;;4.10;;
5428;SDS011;2737;52.386;9.980;2023-04-21T13:29:38;10.70;;;3.83;;
5428;SDS011;2737;52.386;9.980;2023-04-21T13:32:06;15.53;;;4.73;;
5428;SDS011;2737;52.386;9.980;2023-04-21T13:34:33;7.40;;;4.30;;
5428;SDS011;2737;52.386;9.980;2023-04-21T13:37:01;8.27;;;4.33;;
5428;SDS011;2737;52.386;9.980;2023-04-21T13:39:28;7.97;;;4.17;;
5428;SDS011;2737;52.386;9.980;2023-04-21T13:41:55;4.07;;;3.30;;
5428;SDS011;2737;52.386;9.980;2023-04-21T13:44:22;9.80;;;3.30;;
5428;SDS011;2737;52.386;9.980;2023-04-21T13:46:50;7.93;;;3.53;;
5428;SDS011;2737;52.386;9.980;2023-04-21T13:49:18;17.23;;;4.17;;
5428;SDS011;2737;52.386;9.980;2023-04-21T13:51:45;5.20;;;3.50;;
5428;SDS011;2737;52.386;9.980;2023-04-21T13:54:13;8.30;;;3.60;;
5428;SDS011;2737;52.386;9.980;2023-04-21T13:56:40;7.93;;;3.60;;
5428;SDS011;2737;52.386;9.980;2023-04-21T13:59:07;8.20;;;3.50;;
5428;SDS011;2737;52.386;9.980;2023-04-21T14:01:35;5.27;;;3.53;;
5428;SDS011;2737;52.386;9.980;2023-04-21T14:04:03;5.80;;;3.27;;
5428;SDS011;2737;52.386;9.980;2023-04-21T14:06:30;6.30;;;3.07;;
5428;SDS011;2737;52.386;9.980;2023-04-21T14:08:58;5.30;;;3.50;;
5428;SDS011;2737;52.386;9.980;2023-04-21T14:11:25;8.33;;;3.90;;
5428;SDS011;2737;52.386;9.980;2023-04-21T14:13:52;7.40;;;3.60;;
5428;SDS011;2737;52.386;9.980;2023-04-21T14:16:19;11.27;;;3.80;;
5428;SDS011;2737;52.386;9.980;2023-04-21T14:18:46;7.77;;;3.40;;
5428;SDS011;2737;52.386;9.980;2023-04-21T14:21:14;6.10;;;3.33;;
5428;SDS011;2737;52.386;9.980;2023-04-21T14:23:41;13.57;;;4.07;;
5428;SDS011;2737;52.386;9.980;2023-04-21T14:26:08;8.00;;;3.70;;
5428;SDS011;2737;52.386;9.980;2023-04-21T14:28:35;8.30;;;3.40;;
5428;SDS011;2737;52.386;9.980;2023-04-21T14:31:02;11.80;;;3.40;;
5428;SDS011;2737;52.386;9.980;2023-04-21T14:33:29;6.33;;;4.00;;
5428;SDS011;2737;52.386;9.980;2023-04-21T14:35:57;7.63;;;4.60;;
5428;SDS011;2737;52.386;9.980;2023-04-21T14:38:26;5.90;;;3.83;;
5428;SDS011;2737;52.386;9.980;2023-04-21T14:40:54;8.23;;;3.90;;
5428;SDS011;2737;52.386;9.980;2023-04-21T14:43:21;9.07;;;3.43;;
5428;SDS011;2737;52.386;9.980;2023-04-21T14:45:48;6.93;;;3.60;;
5428;SDS011;2737;52.386;9.980;2023-04-21T14:48:15;15.73;;;4.17;;
5428;SDS011;2737;52.386;9.980;2023-04-21T14:50:42;7.63;;;3.40;;
5428;SDS011;2737;52.386;9.980;2023-04-21T14:53:10;5.03;;;3.47;;
5428;SDS011;2737;52.386;9.980;2023-04-21T14:55:38;6.83;;;3.07;;
5428;SDS011;2737;52.386;9.980;2023-04-21T14:58:05;9.40;;;3.27;;
5428;SDS011;2737;52.386;9.980;2023-04-21T15:00:32;7.47;;;3.33;;
5428;SDS011;2737;52.386;9.980;2023-04-21T15:03:00;4.53;;;3.30;;
5428;SDS011;2737;52.386;9.980;2023-04-21T15:05:28;5.07;;;2.93;;
5428;SDS011;2737;52.386;9.980;2023-04-21T15:07:55;3.80;;;2.73;;
5428;SDS011;2737;52.386;9.980;2023-04-21T15:10:22;9.33;;;2.87;;